createdAt,value
2022-11-20T00:01:27.736Z,23.65
2022-11-20T00:03:55.775Z,23.63
2022-11-20T00:06:23.706Z,23.63
2022-11-20T00:08:51.854Z,23.62
2022-11-20T00:11:21.740Z,23.58
2022-11-20T00:13:50.919Z,23.59
2022-11-20T00:16:20.420Z,23.57
2022-11-20T00:18:47.459Z,23.56
2022-11-20T00:21:16.192Z,23.55
2022-11-20T00:23:42.983Z,23.53
2022-11-20T00:26:17.126Z,23.48
2022-11-20T00:28:45.447Z,23.52
2022-11-20T00:31:16.407Z,23.50
2022-11-20T00:33:44.392Z,23.50
2022-11-20T00:36:13.671Z,23.48
2022-11-20T00:38:40.435Z,23.47
2022-11-20T00:41:09.783Z,23.48
2022-11-20T00:43:37.370Z,23.45
2022-11-20T00:46:07.030Z,23.45
2022-11-20T00:48:33.511Z,23.43
2022-11-20T00:51:00.452Z,23.43
2022-11-20T00:53:27.284Z,23.41
2022-11-20T00:56:05.545Z,23.41
2022-11-20T00:58:34.684Z,23.43
2022-11-20T01:01:11.704Z,23.39
2022-11-20T01:03:43.357Z,23.36
2022-11-20T01:06:14.200Z,23.35
2022-11-20T01:08:41.200Z,23.35
2022-11-20T01:11:14.441Z,23.34
2022-11-20T01:13:41.788Z,23.34
2022-11-20T01:16:17.800Z,23.35
2022-11-20T01:18:46.603Z,23.31
2022-11-20T01:21:18.354Z,23.30
2022-11-20T01:23:46.147Z,23.30
2022-11-20T01:26:15.229Z,23.28
2022-11-20T01:28:42.224Z,23.28
2022-11-20T01:31:20.266Z,23.25
2022-11-20T01:33:48.735Z,23.25
2022-11-20T01:36:16.430Z,23.23
2022-11-20T01:38:43.507Z,23.22
2022-11-20T01:41:11.595Z,23.21
2022-11-20T01:43:38.082Z,23.21
2022-11-20T01:46:04.480Z,23.22
2022-11-20T01:48:38.891Z,23.20
2022-11-20T01:51:13.353Z,23.15
2022-11-20T01:53:40.003Z,23.12
2022-11-20T01:56:11.104Z,23.09
2022-11-20T01:58:43.634Z,23.08
2022-11-20T02:01:10.423Z,23.07
2022-11-20T02:03:37.498Z,23.04
2022-11-20T02:06:07.924Z,23.02
2022-11-20T02:08:35.977Z,23.01
2022-11-20T02:11:02.435Z,22.98
2022-11-20T02:13:44.048Z,22.95
2022-11-20T02:16:15.543Z,22.92
2022-11-20T02:18:43.659Z,22.91
2022-11-20T02:21:24.272Z,22.88
2022-11-20T02:23:57.312Z,22.86
2022-11-20T02:26:24.895Z,22.86
2022-11-20T02:28:51.715Z,22.84
2022-11-20T02:31:18.168Z,22.82
2022-11-20T02:33:44.604Z,22.81
2022-11-20T02:36:15.709Z,22.81
2022-11-20T02:38:44.108Z,22.79
2022-11-20T02:41:10.536Z,22.77
2022-11-20T02:43:36.983Z,22.75
2022-11-20T02:46:03.438Z,22.74
2022-11-20T02:48:33.700Z,22.72
2022-11-20T02:51:00.581Z,22.73
2022-11-20T02:53:27.032Z,22.73
2022-11-20T02:55:53.599Z,22.71
2022-11-20T02:58:20.026Z,22.70
2022-11-20T03:00:46.528Z,22.69
2022-11-20T03:03:12.967Z,22.67
2022-11-20T03:05:39.412Z,22.66
2022-11-20T03:08:05.868Z,22.64
2022-11-20T03:10:32.304Z,22.62
2022-11-20T03:12:58.740Z,22.63
2022-11-20T03:15:25.267Z,22.62
2022-11-20T03:17:56.093Z,22.60
2022-11-20T03:20:23.008Z,22.59
2022-11-20T03:22:49.452Z,22.59
2022-11-20T03:25:15.968Z,22.57
2022-11-20T03:27:42.394Z,22.55
2022-11-20T03:30:09.475Z,22.55
2022-11-20T03:37:28.636Z,22.54
2022-11-20T03:39:55.066Z,22.52
2022-11-20T03:42:40.194Z,22.51
2022-11-20T03:45:07.000Z,22.51
2022-11-20T03:47:33.456Z,22.50
2022-11-20T03:49:59.900Z,22.50
2022-11-20T03:52:26.348Z,22.49
2022-11-20T03:54:52.782Z,22.46
2022-11-20T03:57:20.347Z,22.47
2022-11-20T03:59:46.803Z,22.45
2022-11-20T04:02:13.300Z,22.45
2022-11-20T04:04:39.752Z,22.45
2022-11-20T04:07:06.285Z,22.44
2022-11-20T04:09:32.775Z,22.42
2022-11-20T04:11:59.238Z,22.41
2022-11-20T04:14:25.814Z,22.40
2022-11-20T04:16:52.330Z,22.41
2022-11-20T04:19:19.327Z,22.39
2022-11-20T04:21:46.453Z,22.38
2022-11-20T04:24:13.285Z,22.39
2022-11-20T04:26:39.978Z,22.39
2022-11-20T04:29:06.647Z,22.38
2022-11-20T04:31:35.523Z,22.38
2022-11-20T04:34:04.735Z,22.38
2022-11-20T04:36:32.176Z,22.38
2022-11-20T04:39:07.052Z,22.37
2022-11-20T04:41:36.411Z,22.37
2022-11-20T04:44:05.237Z,22.36
2022-11-20T04:46:38.299Z,22.36
2022-11-20T04:49:04.939Z,22.36
2022-11-20T04:51:31.496Z,22.33
2022-11-20T04:53:58.096Z,22.32
2022-11-20T04:56:24.620Z,22.32
2022-11-20T04:58:51.716Z,22.32
2022-11-20T05:01:21.167Z,22.32
2022-11-20T05:03:47.986Z,22.31
2022-11-20T05:06:16.532Z,22.29
2022-11-20T05:08:43.345Z,22.31
2022-11-20T05:11:12.553Z,22.29
2022-11-20T05:13:39.882Z,22.28
2022-11-20T05:16:11.813Z,22.27
2022-11-20T05:18:39.427Z,22.27
2022-11-20T05:21:06.244Z,22.28
2022-11-20T05:23:33.484Z,22.27
2022-11-20T05:26:00.442Z,22.30
2022-11-20T05:28:29.056Z,22.27
2022-11-20T05:30:55.735Z,22.27
2022-11-20T05:33:22.568Z,22.23
2022-11-20T05:35:49.573Z,22.22
2022-11-20T05:38:16.463Z,22.20
2022-11-20T05:40:42.922Z,22.20
2022-11-20T05:43:09.390Z,22.19
2022-11-20T05:45:36.104Z,22.18
2022-11-20T05:48:02.706Z,22.19
2022-11-20T05:50:29.446Z,22.21
2022-11-20T05:52:55.995Z,22.19
2022-11-20T05:55:22.647Z,22.18
2022-11-20T05:57:49.079Z,22.18
2022-11-20T06:00:16.066Z,22.18
2022-11-20T06:02:42.849Z,22.19
2022-11-20T06:05:09.447Z,22.17
2022-11-20T06:07:35.928Z,22.18
2022-11-20T06:10:02.743Z,22.15
2022-11-20T06:12:29.192Z,22.15
2022-11-20T06:14:55.680Z,22.16
2022-11-20T06:17:22.137Z,22.15
2022-11-20T06:19:48.774Z,22.13
2022-11-20T06:22:15.447Z,22.12
2022-11-20T06:24:41.875Z,22.12
2022-11-20T06:27:08.311Z,22.14
2022-11-20T06:29:34.827Z,22.12
2022-11-20T06:32:02.044Z,22.13
2022-11-20T06:34:28.501Z,22.12
2022-11-20T06:36:54.958Z,22.15
2022-11-20T06:39:21.709Z,22.16
2022-11-20T06:41:48.357Z,22.13
2022-11-20T06:44:14.794Z,22.10
2022-11-20T06:46:41.207Z,22.10
2022-11-20T06:49:07.643Z,22.11
2022-11-20T06:51:34.188Z,22.12
2022-11-20T06:54:01.931Z,22.09
2022-11-20T06:56:29.054Z,22.08
2022-11-20T06:58:55.515Z,22.07
2022-11-20T07:01:22.046Z,22.08
2022-11-20T07:03:54.276Z,22.08
2022-11-20T07:06:21.384Z,22.07
2022-11-20T07:08:48.076Z,22.08
2022-11-20T07:11:14.891Z,22.08
2022-11-20T07:13:41.405Z,22.07
2022-11-20T07:16:09.183Z,22.07
2022-11-20T07:18:37.153Z,22.07
2022-11-20T07:21:04.998Z,22.07
2022-11-20T07:23:32.039Z,22.06
2022-11-20T07:25:58.667Z,22.08
2022-11-20T07:28:25.183Z,22.08
2022-11-20T07:30:52.868Z,22.08
2022-11-20T07:33:19.781Z,22.07
2022-11-20T07:35:46.424Z,22.08
2022-11-20T07:38:12.942Z,22.10
2022-11-20T07:40:39.507Z,22.09
2022-11-20T07:43:05.955Z,22.08
2022-11-20T07:45:32.408Z,22.09
2022-11-20T07:47:58.860Z,22.08
2022-11-20T07:50:25.506Z,22.11
2022-11-20T07:52:51.993Z,22.10
2022-11-20T07:55:18.447Z,22.02
2022-11-20T07:57:44.922Z,22.03
2022-11-20T08:00:12.958Z,21.99
2022-11-20T08:02:40.731Z,22.03
2022-11-20T08:05:08.616Z,22.01
2022-11-20T08:07:39.800Z,22.01
2022-11-20T08:10:07.845Z,22.04
2022-11-20T08:12:53.132Z,22.05
2022-11-20T08:15:19.592Z,22.05
2022-11-20T08:18:01.946Z,22.07
2022-11-20T08:20:32.908Z,22.08
2022-11-20T08:23:04.398Z,22.06
2022-11-20T08:25:30.946Z,22.10
2022-11-20T08:28:08.960Z,22.15
2022-11-20T08:30:42.295Z,22.13
2022-11-20T08:33:10.268Z,22.12
2022-11-20T08:35:37.848Z,22.15
2022-11-20T08:38:05.719Z,22.17
2022-11-20T08:40:32.960Z,22.17
2022-11-20T08:42:59.603Z,22.19
2022-11-20T08:45:30.945Z,22.19
2022-11-20T08:48:04.304Z,22.19
2022-11-20T08:50:33.126Z,22.20
2022-11-20T08:53:09.079Z,22.21
2022-11-20T08:55:38.135Z,22.21
2022-11-20T08:58:05.768Z,22.22
2022-11-20T09:00:33.501Z,22.21
2022-11-20T09:03:01.865Z,22.25
2022-11-20T09:05:28.599Z,22.25
2022-11-20T09:07:59.291Z,22.26
2022-11-20T09:10:26.452Z,22.27
2022-11-20T09:12:53.822Z,22.29
2022-11-20T09:15:20.618Z,22.33
2022-11-20T09:17:54.627Z,22.34
2022-11-20T09:20:21.530Z,22.36
2022-11-20T09:22:48.420Z,22.37
2022-11-20T09:25:15.071Z,22.38
2022-11-20T09:27:44.640Z,22.39
2022-11-20T09:30:11.914Z,22.39
2022-11-20T09:32:40.194Z,22.39
2022-11-20T09:35:07.004Z,22.41
2022-11-20T09:37:33.466Z,22.42
2022-11-20T09:39:59.915Z,22.43
2022-11-20T09:42:48.583Z,22.46
2022-11-20T09:45:18.004Z,22.46
2022-11-20T09:48:02.936Z,22.47
2022-11-20T09:50:48.831Z,22.48
2022-11-20T09:53:35.961Z,22.47
2022-11-20T09:56:05.727Z,22.49
2022-11-20T09:58:42.818Z,22.49
2022-11-20T10:01:15.389Z,22.50
2022-11-20T10:04:20.284Z,22.52
2022-11-20T10:07:30.241Z,22.52
2022-11-20T10:09:57.706Z,22.54
2022-11-20T10:12:50.075Z,22.54
2022-11-20T10:15:38.182Z,22.49
2022-11-20T10:18:04.579Z,22.50
2022-11-20T10:20:42.448Z,22.50
2022-11-20T10:23:08.870Z,22.52
2022-11-20T10:25:40.314Z,22.56
2022-11-20T10:28:34.700Z,22.54
2022-11-20T10:31:09.532Z,22.56
2022-11-20T10:34:05.009Z,22.52
2022-11-20T10:36:44.421Z,22.50
2022-11-20T10:39:26.833Z,22.47
2022-11-20T10:41:54.757Z,22.51
2022-11-20T10:44:42.022Z,22.55
2022-11-20T10:47:15.423Z,22.56
2022-11-20T10:49:42.527Z,22.56
2022-11-20T10:52:20.168Z,22.54
2022-11-20T10:55:27.991Z,22.55
2022-11-20T10:58:34.239Z,22.57
2022-11-20T11:01:28.039Z,22.57
2022-11-20T11:03:56.486Z,22.55
2022-11-20T11:06:29.031Z,22.55
2022-11-20T11:08:59.716Z,22.55
2022-11-20T11:14:11.643Z,22.54
2022-11-20T11:16:52.213Z,22.52
2022-11-20T11:19:18.815Z,22.54
2022-11-20T11:21:55.797Z,22.54
2022-11-20T11:24:42.402Z,22.55
2022-11-20T11:27:18.500Z,22.54
2022-11-20T11:29:46.505Z,22.51
2022-11-20T11:32:19.731Z,22.51
2022-11-20T11:34:46.230Z,22.50
2022-11-20T11:37:25.220Z,22.51
2022-11-20T11:40:16.410Z,22.51
2022-11-20T11:42:44.400Z,22.51
2022-11-20T11:45:18.314Z,22.52
2022-11-20T11:47:48.338Z,22.50
2022-11-20T11:50:23.509Z,22.50
2022-11-20T11:53:17.580Z,22.51
2022-11-20T11:55:57.136Z,22.48
2022-11-20T11:58:45.571Z,22.49
2022-11-20T12:01:50.232Z,22.49
2022-11-20T12:04:38.648Z,22.48
2022-11-20T12:07:44.106Z,22.48
2022-11-20T12:10:02.571Z,22.48
2022-11-20T12:12:43.761Z,22.47
2022-11-20T12:15:21.383Z,22.49
2022-11-20T12:17:47.816Z,22.49
2022-11-20T12:20:15.779Z,22.48
2022-11-20T12:22:56.347Z,22.48
2022-11-20T12:25:28.368Z,22.49
2022-11-20T12:28:34.544Z,22.48
2022-11-20T12:31:32.161Z,22.48
2022-11-20T12:34:19.823Z,22.46
2022-11-20T12:36:59.108Z,22.46
2022-11-20T12:39:31.632Z,22.47
2022-11-20T12:42:36.140Z,22.47
2022-11-20T12:45:39.944Z,22.48
2022-11-20T12:48:12.322Z,22.50
2022-11-20T12:51:08.131Z,22.50
2022-11-20T12:53:40.641Z,22.50
2022-11-20T12:56:28.924Z,22.49
2022-11-20T12:59:10.364Z,22.48
2022-11-20T13:01:48.611Z,22.49
2022-11-20T13:04:59.373Z,22.48
2022-11-20T13:07:29.095Z,22.49
2022-11-20T13:09:55.929Z,22.48
2022-11-20T13:12:31.119Z,22.48
2022-11-20T13:15:38.083Z,22.47
2022-11-20T13:18:09.421Z,22.45
2022-11-20T13:20:37.259Z,22.46
2022-11-20T13:23:03.739Z,22.46
2022-11-20T13:25:34.087Z,22.46
2022-11-20T13:28:05.255Z,22.47
2022-11-20T13:30:32.830Z,22.49
2022-11-20T13:33:23.755Z,22.48
2022-11-20T13:36:07.903Z,22.50
2022-11-20T13:41:54.698Z,22.50
2022-11-20T13:44:40.674Z,22.54
2022-11-20T13:47:22.404Z,22.54
2022-11-20T13:49:52.075Z,22.54
2022-11-20T13:52:43.199Z,22.55
2022-11-20T13:55:20.665Z,22.56
2022-11-20T13:57:56.356Z,22.54
2022-11-20T14:00:25.516Z,22.55
2022-11-20T14:03:03.478Z,22.55
2022-11-20T14:05:35.772Z,22.55
2022-11-20T14:08:06.606Z,22.55
2022-11-20T14:10:33.175Z,22.55
2022-11-20T14:13:10.470Z,22.55
2022-11-20T14:15:41.855Z,22.56
2022-11-20T14:18:22.791Z,22.55
2022-11-20T14:20:49.491Z,22.56
2022-11-20T14:23:30.247Z,22.53
2022-11-20T14:25:57.138Z,22.55
2022-11-20T14:28:29.449Z,22.54
2022-11-20T14:30:56.495Z,22.54
2022-11-20T14:33:25.866Z,22.52
2022-11-20T14:35:57.300Z,22.54
2022-11-20T14:38:29.703Z,22.52
2022-11-20T14:41:07.316Z,22.49
2022-11-20T14:43:36.888Z,22.51
2022-11-20T14:46:06.698Z,22.50
2022-11-20T14:48:43.238Z,22.43
2022-11-20T14:51:24.678Z,22.38
2022-11-20T14:53:52.015Z,22.36
2022-11-20T14:56:22.439Z,22.40
2022-11-20T14:58:57.617Z,22.39
2022-11-20T15:01:32.505Z,22.38
2022-11-20T15:04:07.249Z,22.33
2022-11-20T15:06:34.011Z,22.27
2022-11-20T15:09:00.523Z,22.25
2022-11-20T15:11:31.505Z,22.23
2022-11-20T15:13:59.224Z,22.26
2022-11-20T15:16:27.781Z,22.31
2022-11-20T15:18:54.968Z,22.35
2022-11-20T15:21:22.129Z,22.37
2022-11-20T15:23:49.135Z,22.36
2022-11-20T15:26:22.055Z,22.37
2022-11-20T15:28:51.058Z,22.37
2022-11-20T15:31:20.778Z,22.38
2022-11-20T15:33:47.596Z,22.38
2022-11-20T15:36:14.135Z,22.39
2022-11-20T15:38:40.697Z,22.42
2022-11-20T15:41:07.927Z,22.41
2022-11-20T15:43:34.383Z,22.45
2022-11-20T15:46:16.428Z,22.44
2022-11-20T15:48:48.150Z,22.45
2022-11-20T15:51:28.963Z,22.45
2022-11-20T15:53:56.643Z,22.45
2022-11-20T15:56:23.857Z,22.45
2022-11-20T15:58:50.321Z,22.46
2022-11-20T16:01:19.928Z,22.47
2022-11-20T16:03:46.595Z,22.46
2022-11-20T16:06:13.103Z,22.47
2022-11-20T16:08:40.039Z,22.47
2022-11-20T16:11:06.482Z,22.48
2022-11-20T16:13:51.972Z,22.49
2022-11-20T16:16:23.363Z,22.50
2022-11-20T16:18:50.627Z,22.50
2022-11-20T16:21:17.159Z,22.48
2022-11-20T16:23:44.054Z,22.49
2022-11-20T16:26:16.791Z,22.48
2022-11-20T16:28:43.642Z,22.47
2022-11-20T16:31:12.398Z,22.48
2022-11-20T16:33:38.895Z,22.47
2022-11-20T16:36:13.684Z,22.46
2022-11-20T16:38:40.955Z,22.47
2022-11-20T16:41:07.451Z,22.47
2022-11-20T16:43:33.991Z,22.46
2022-11-20T16:46:04.507Z,22.48
2022-11-20T16:48:30.946Z,22.49
2022-11-20T16:50:57.420Z,22.48
2022-11-20T16:53:23.998Z,22.48
2022-11-20T16:55:50.484Z,22.49
2022-11-20T16:58:17.023Z,22.48
2022-11-20T17:00:50.060Z,22.48
2022-11-20T17:03:18.221Z,22.48
2022-11-20T17:05:44.707Z,22.47
2022-11-20T17:08:11.157Z,22.48
2022-11-20T17:10:37.596Z,22.49
2022-11-20T17:13:04.085Z,22.49
2022-11-20T17:15:31.481Z,22.48
2022-11-20T17:17:57.939Z,22.48
2022-11-20T17:20:24.389Z,22.49
2022-11-20T17:22:50.840Z,22.46
2022-11-20T17:25:17.385Z,22.47
2022-11-20T17:27:43.851Z,22.48
2022-11-20T17:30:10.477Z,22.49
2022-11-20T17:32:37.018Z,22.49
2022-11-20T17:35:03.587Z,22.49
2022-11-20T17:37:30.034Z,22.48
2022-11-20T17:39:56.532Z,22.46
2022-11-20T17:42:29.668Z,22.46
2022-11-20T17:44:58.733Z,22.45
2022-11-20T17:47:25.940Z,22.45
2022-11-20T17:49:53.584Z,22.44
2022-11-20T17:52:20.403Z,22.45
2022-11-20T17:54:46.927Z,22.46
2022-11-20T17:57:31.587Z,22.45
2022-11-20T17:59:58.014Z,22.45
2022-11-20T18:02:25.040Z,22.43
2022-11-20T18:04:51.492Z,22.45
2022-11-20T18:07:17.986Z,22.45
2022-11-20T18:09:44.455Z,22.46
2022-11-20T18:12:10.939Z,22.46
2022-11-20T18:14:37.423Z,22.45
2022-11-20T18:17:05.911Z,22.45
2022-11-20T18:19:40.283Z,22.44
2022-11-20T18:22:12.948Z,22.44
2022-11-20T18:24:39.977Z,22.45
2022-11-20T18:27:09.384Z,22.46
2022-11-20T18:29:35.832Z,22.47
2022-11-20T18:32:02.624Z,22.46
2022-11-20T18:34:29.255Z,22.45
2022-11-20T18:36:55.851Z,22.45
2022-11-20T18:39:23.586Z,22.43
2022-11-20T18:42:08.640Z,22.44
2022-11-20T18:44:54.783Z,22.46
2022-11-20T18:47:30.801Z,22.45
2022-11-20T18:50:01.285Z,22.45
2022-11-20T18:52:34.039Z,22.44
2022-11-20T18:55:02.399Z,22.44
2022-11-20T18:57:30.035Z,22.45
2022-11-20T19:00:06.450Z,22.46
2022-11-20T19:02:41.009Z,22.44
2022-11-20T19:05:09.203Z,22.46
2022-11-20T19:07:35.725Z,22.46
2022-11-20T19:10:04.146Z,22.46
2022-11-20T19:12:31.487Z,22.46
2022-11-20T19:14:58.015Z,22.45
2022-11-20T19:17:24.578Z,22.46
2022-11-20T19:19:51.147Z,22.45
2022-11-20T19:22:17.683Z,22.43
2022-11-20T19:24:44.158Z,22.43
2022-11-20T19:27:10.669Z,22.44
2022-11-20T19:29:37.122Z,22.43
2022-11-20T19:32:04.505Z,22.44
2022-11-20T19:34:31.743Z,22.44
2022-11-20T19:36:58.828Z,22.43
2022-11-20T19:39:25.498Z,22.44
2022-11-20T19:41:52.196Z,22.46
2022-11-20T19:44:19.409Z,22.45
2022-11-20T19:46:45.883Z,22.45
2022-11-20T19:49:13.960Z,22.45
2022-11-20T19:51:45.775Z,22.46
2022-11-20T19:54:12.710Z,22.46
2022-11-20T19:56:39.186Z,22.45
2022-11-20T19:59:05.750Z,22.45
2022-11-20T20:01:32.369Z,22.43
2022-11-20T20:04:05.372Z,22.45
2022-11-20T20:06:34.600Z,22.44
2022-11-20T20:09:08.150Z,22.44
2022-11-20T20:11:35.775Z,22.45
2022-11-20T20:14:04.122Z,22.44
2022-11-20T20:16:30.764Z,22.46
2022-11-20T20:19:02.389Z,22.44
2022-11-20T20:21:32.888Z,22.44
2022-11-20T20:23:59.772Z,22.46
2022-11-20T20:26:28.997Z,22.44
2022-11-20T20:28:55.976Z,22.45
2022-11-20T20:31:25.493Z,22.44
2022-11-20T20:33:52.168Z,22.43
2022-11-20T20:36:20.475Z,22.44
2022-11-20T20:38:47.561Z,22.44
2022-11-20T20:41:14.859Z,22.43
2022-11-20T20:43:59.963Z,22.45
2022-11-20T20:46:26.419Z,22.45
2022-11-20T20:48:54.913Z,22.46
2022-11-20T20:51:22.704Z,22.46
2022-11-20T20:53:49.648Z,22.44
2022-11-20T20:56:17.223Z,22.44
2022-11-20T20:58:43.921Z,22.45
2022-11-20T21:01:13.387Z,22.44
2022-11-20T21:03:39.895Z,22.43
2022-11-20T21:06:07.689Z,22.43
2022-11-20T21:08:36.073Z,22.42
2022-11-20T21:11:09.747Z,22.42
2022-11-20T21:13:37.434Z,22.43
2022-11-20T21:16:04.807Z,22.42
2022-11-20T21:18:32.256Z,22.43
2022-11-20T21:21:17.727Z,22.41
2022-11-20T21:23:47.742Z,22.42
2022-11-20T21:26:16.050Z,22.42
2022-11-20T21:28:42.783Z,22.43
2022-11-20T21:31:12.036Z,22.40
2022-11-20T21:33:43.688Z,22.41
2022-11-20T21:36:12.016Z,22.41
2022-11-20T21:38:38.475Z,22.40
2022-11-20T21:41:07.017Z,22.41
2022-11-20T21:43:33.576Z,22.40
2022-11-20T21:46:08.004Z,22.40
2022-11-20T21:48:36.595Z,22.41
2022-11-20T21:51:07.687Z,22.39
2022-11-20T21:53:34.463Z,22.39
2022-11-20T21:56:01.316Z,22.39
2022-11-20T21:58:28.242Z,22.38
2022-11-20T22:00:54.791Z,22.37
2022-11-20T22:03:21.244Z,22.36
2022-11-20T22:05:57.810Z,22.36
2022-11-20T22:08:25.388Z,22.37
2022-11-20T22:10:55.882Z,22.37
2022-11-20T22:13:41.847Z,22.36
2022-11-20T22:16:08.737Z,22.33
2022-11-20T22:18:35.385Z,22.34
2022-11-20T22:21:07.048Z,22.33
2022-11-20T22:23:34.527Z,22.33
2022-11-20T22:26:10.052Z,22.33
2022-11-20T22:28:36.752Z,22.33
2022-11-20T22:31:05.296Z,22.33
2022-11-20T22:33:32.716Z,22.33
2022-11-20T22:36:01.376Z,22.32
2022-11-20T22:38:29.735Z,22.29
2022-11-20T22:41:06.090Z,22.30
2022-11-20T22:43:32.889Z,22.30
2022-11-20T22:46:19.640Z,22.28
2022-11-20T22:48:50.418Z,22.28
2022-11-20T22:51:18.706Z,22.27
2022-11-20T22:53:45.368Z,22.26
2022-11-20T22:56:13.515Z,22.26
2022-11-20T22:58:42.528Z,22.27
2022-11-20T23:01:16.063Z,22.26
2022-11-20T23:03:44.993Z,22.24
2022-11-20T23:06:12.271Z,22.25
2022-11-20T23:08:40.152Z,22.21
2022-11-20T23:11:09.471Z,22.22
2022-11-20T23:13:36.551Z,22.23
2022-11-20T23:16:09.947Z,22.22
2022-11-20T23:18:36.732Z,22.21
2022-11-20T23:21:10.960Z,22.22
2022-11-20T23:23:37.751Z,22.21
2022-11-20T23:26:07.151Z,22.20
2022-11-20T23:28:34.190Z,22.21
2022-11-20T23:31:01.059Z,22.19
2022-11-20T23:33:27.614Z,22.18
2022-11-20T23:35:54.246Z,22.17
2022-11-20T23:38:20.765Z,22.17
2022-11-20T23:40:48.816Z,22.16
2022-11-20T23:43:16.435Z,22.16
2022-11-20T23:45:44.816Z,22.16
2022-11-20T23:48:11.415Z,22.16
2022-11-20T23:50:37.950Z,22.17
2022-11-20T23:53:05.098Z,22.16
2022-11-20T23:55:32.036Z,22.14
2022-11-20T23:57:58.521Z,22.13
